createdAt,value
2023-05-10T00:02:05.831Z,9.43
2023-05-10T00:04:33.772Z,9.58
2023-05-10T00:07:01.774Z,9.47
2023-05-10T00:09:29.933Z,9.34
2023-05-10T00:11:59.436Z,9.28
2023-05-10T00:14:27.590Z,9.19
2023-05-10T00:16:56.898Z,9.33
2023-05-10T00:19:24.834Z,9.28
2023-05-10T00:21:52.740Z,9.28
2023-05-10T00:24:20.673Z,9.46
2023-05-10T00:26:48.666Z,9.54
2023-05-10T00:29:16.532Z,9.64
2023-05-10T00:31:44.476Z,9.57
2023-05-10T00:34:13.772Z,9.55
2023-05-10T00:36:41.741Z,9.42
2023-05-10T00:39:09.698Z,9.34
2023-05-10T00:41:37.554Z,9.31
2023-05-10T00:44:05.673Z,9.37
2023-05-10T00:46:33.947Z,9.49
2023-05-10T00:49:02.017Z,9.42
2023-05-10T00:51:32.074Z,9.24
2023-05-10T00:54:00.687Z,9.31
2023-05-10T00:56:30.668Z,9.18
2023-05-10T00:58:58.746Z,9.20
2023-05-10T01:01:27.171Z,9.18
2023-05-10T01:03:56.573Z,9.17
2023-05-10T01:06:24.431Z,9.16
2023-05-10T01:08:53.834Z,9.11
2023-05-10T01:11:21.922Z,9.33
2023-05-10T01:13:57.734Z,9.13
2023-05-10T01:16:26.440Z,9.05
2023-05-10T01:18:55.156Z,8.95
2023-05-10T01:21:29.871Z,8.81
2023-05-10T01:24:17.290Z,9.09
2023-05-10T01:27:17.864Z,9.08
2023-05-10T01:30:15.305Z,9.08
2023-05-10T01:32:51.740Z,9.01
2023-05-10T01:35:24.993Z,8.86
2023-05-10T01:37:59.129Z,8.83
2023-05-10T01:40:33.671Z,8.75
2023-05-10T01:43:04.878Z,8.86
2023-05-10T01:45:36.369Z,8.89
2023-05-10T01:48:12.032Z,9.05
2023-05-10T01:50:43.866Z,9.02
2023-05-10T01:53:13.757Z,8.91
2023-05-10T01:55:47.257Z,8.92
2023-05-10T01:58:21.220Z,9.10
2023-05-10T02:00:51.995Z,8.88
2023-05-10T02:03:24.386Z,8.87
2023-05-10T02:05:54.311Z,8.59
2023-05-10T02:08:24.033Z,8.69
2023-05-10T02:10:55.825Z,8.74
2023-05-10T02:13:25.672Z,8.63
2023-05-10T02:15:56.726Z,8.63
2023-05-10T02:18:27.948Z,8.70
2023-05-10T02:20:57.583Z,8.65
2023-05-10T02:23:27.300Z,8.70
2023-05-10T02:25:56.984Z,8.75
2023-05-10T02:28:26.678Z,8.84
2023-05-10T02:30:56.678Z,8.84
2023-05-10T02:33:27.227Z,8.91
2023-05-10T02:35:55.497Z,8.93
2023-05-10T02:38:24.793Z,8.90
2023-05-10T02:40:53.233Z,8.87
2023-05-10T02:43:24.667Z,8.62
2023-05-10T02:45:52.716Z,8.77
2023-05-10T02:48:20.861Z,8.90
2023-05-10T02:50:52.927Z,8.79
2023-05-10T02:53:24.818Z,8.73
2023-05-10T02:55:54.803Z,8.68
2023-05-10T02:58:23.713Z,8.82
2023-05-10T03:00:51.735Z,8.90
2023-05-10T03:03:19.925Z,8.84
2023-05-10T03:05:47.902Z,8.74
2023-05-10T03:08:17.301Z,8.80
2023-05-10T03:11:05.970Z,8.59
2023-05-10T03:13:41.898Z,8.58
2023-05-10T03:16:14.313Z,8.68
2023-05-10T03:18:47.696Z,8.72
2023-05-10T03:21:18.655Z,8.55
2023-05-10T03:23:52.488Z,8.62
2023-05-10T03:26:26.450Z,8.55
2023-05-10T03:28:55.218Z,8.47
2023-05-10T03:31:23.544Z,8.65
2023-05-10T03:33:52.838Z,8.61
2023-05-10T03:36:21.583Z,8.61
2023-05-10T03:38:50.861Z,8.50
2023-05-10T03:41:18.795Z,8.72
2023-05-10T03:43:46.691Z,8.78
2023-05-10T03:46:14.616Z,8.59
2023-05-10T03:48:42.642Z,8.63
2023-05-10T03:51:10.700Z,8.74
2023-05-10T03:53:38.575Z,8.66
2023-05-10T03:56:08.204Z,8.82
2023-05-10T03:58:36.133Z,8.72
2023-05-10T04:01:03.992Z,8.79
2023-05-10T04:03:31.989Z,8.77
2023-05-10T04:06:03.376Z,8.75
2023-05-10T04:08:31.568Z,8.81
2023-05-10T04:11:09.137Z,8.91
2023-05-10T04:13:37.710Z,8.88
2023-05-10T04:16:06.391Z,8.80
2023-05-10T04:18:34.440Z,8.92
2023-05-10T04:21:02.645Z,8.86
2023-05-10T04:23:30.641Z,8.83
2023-05-10T04:26:02.725Z,8.75
2023-05-10T04:28:32.151Z,8.90
2023-05-10T04:31:03.880Z,9.07
2023-05-10T04:33:31.962Z,9.17
2023-05-10T04:35:59.971Z,9.14
2023-05-10T04:38:28.503Z,8.91
2023-05-10T04:40:56.485Z,9.00
2023-05-10T04:43:24.370Z,8.79
2023-05-10T04:45:53.646Z,8.71
2023-05-10T04:48:21.550Z,8.85
2023-05-10T04:50:49.429Z,8.85
2023-05-10T04:53:17.509Z,8.75
2023-05-10T04:55:45.497Z,8.90
2023-05-10T04:58:13.441Z,8.77
2023-05-10T05:00:41.642Z,8.65
2023-05-10T05:03:11.029Z,8.56
2023-05-10T05:05:39.081Z,8.77
2023-05-10T05:08:07.829Z,8.91
2023-05-10T05:10:35.989Z,8.92
2023-05-10T05:13:04.142Z,8.93
2023-05-10T05:15:32.188Z,8.81
2023-05-10T05:18:00.181Z,8.84
2023-05-10T05:20:29.519Z,9.07
2023-05-10T05:22:57.430Z,9.22
2023-05-10T05:25:25.384Z,9.19
2023-05-10T05:27:53.332Z,9.19
2023-05-10T05:30:21.458Z,9.17
2023-05-10T05:32:49.512Z,9.18
2023-05-10T05:35:17.645Z,9.47
2023-05-10T05:37:47.124Z,9.44
2023-05-10T05:40:15.578Z,9.44
2023-05-10T05:42:43.559Z,9.57
2023-05-10T05:45:14.074Z,9.64
2023-05-10T05:47:42.382Z,9.48
2023-05-10T05:50:11.398Z,8.84
2023-05-10T05:52:39.370Z,9.40
2023-05-10T05:55:09.384Z,9.43
2023-05-10T05:57:37.232Z,9.55
2023-05-10T06:00:06.170Z,9.66
2023-05-10T06:02:34.109Z,9.67
2023-05-10T06:05:02.088Z,9.50
2023-05-10T06:07:30.397Z,9.47
2023-05-10T06:09:58.352Z,9.43
2023-05-10T06:12:27.655Z,9.46
2023-05-10T06:14:55.632Z,9.47
2023-05-10T06:17:23.773Z,9.36
2023-05-10T06:19:51.738Z,9.53
2023-05-10T06:22:19.914Z,9.67
2023-05-10T06:24:48.012Z,9.80
2023-05-10T06:27:15.980Z,9.80
2023-05-10T06:29:45.422Z,9.81
2023-05-10T06:32:13.371Z,9.82
2023-05-10T06:34:41.387Z,9.77
2023-05-10T06:37:09.357Z,9.74
2023-05-10T06:39:37.855Z,9.65
2023-05-10T06:42:06.270Z,9.58
2023-05-10T06:44:34.338Z,9.61
2023-05-10T06:47:03.664Z,9.74
2023-05-10T06:49:31.599Z,9.76
2023-05-10T06:51:59.489Z,9.73
2023-05-10T06:54:27.552Z,9.86
2023-05-10T06:56:55.536Z,9.75
2023-05-10T06:59:23.718Z,9.83
2023-05-10T07:01:51.758Z,9.93
2023-05-10T07:04:21.141Z,10.01
2023-05-10T07:06:50.655Z,10.19
2023-05-10T07:09:18.758Z,9.90
2023-05-10T07:11:46.741Z,10.08
2023-05-10T07:14:14.704Z,10.03
2023-05-10T07:16:42.639Z,10.16
2023-05-10T07:19:10.633Z,10.16
2023-05-10T07:21:41.489Z,10.20
2023-05-10T07:24:09.521Z,10.26
2023-05-10T07:26:37.797Z,10.32
2023-05-10T07:29:05.713Z,10.50
2023-05-10T07:31:33.672Z,10.53
2023-05-10T07:34:01.622Z,10.43
2023-05-10T07:36:29.962Z,10.46
2023-05-10T07:38:59.543Z,10.45
2023-05-10T07:41:27.485Z,10.67
2023-05-10T07:43:55.789Z,11.01
2023-05-10T07:46:24.002Z,10.98
2023-05-10T07:48:52.155Z,11.03
2023-05-10T07:51:20.165Z,11.09
2023-05-10T07:53:48.145Z,11.03
2023-05-10T07:56:26.268Z,11.11
2023-05-10T07:58:54.343Z,11.08
2023-05-10T08:01:22.394Z,10.83
2023-05-10T08:03:51.730Z,10.89
2023-05-10T08:06:20.264Z,11.04
2023-05-10T08:08:50.444Z,10.82
2023-05-10T08:11:18.762Z,10.83
2023-05-10T08:13:48.666Z,10.79
2023-05-10T08:16:16.711Z,10.69
2023-05-10T08:18:46.637Z,10.76
2023-05-10T08:21:14.891Z,10.65
2023-05-10T08:23:44.729Z,10.79
2023-05-10T08:26:12.992Z,10.89
2023-05-10T08:28:41.016Z,10.95
2023-05-10T08:31:10.461Z,11.05
2023-05-10T08:33:38.488Z,11.18
2023-05-10T08:36:06.684Z,11.27
2023-05-10T08:38:34.990Z,11.40
2023-05-10T08:41:04.614Z,11.42
2023-05-10T08:43:33.638Z,11.62
2023-05-10T08:46:03.851Z,11.78
2023-05-10T08:48:36.523Z,12.03
2023-05-10T08:51:05.874Z,11.81
2023-05-10T08:53:37.495Z,11.97
2023-05-10T08:56:06.349Z,12.05
2023-05-10T08:58:34.478Z,11.90
2023-05-10T09:01:03.441Z,11.97
2023-05-10T09:03:33.726Z,11.94
2023-05-10T09:06:01.674Z,11.59
2023-05-10T09:08:30.502Z,11.74
2023-05-10T09:10:58.926Z,11.45
2023-05-10T09:13:27.257Z,11.40
2023-05-10T09:15:55.520Z,11.74
2023-05-10T09:18:24.042Z,11.93
2023-05-10T09:20:54.408Z,12.03
2023-05-10T09:23:22.436Z,12.07
2023-05-10T09:25:50.764Z,11.99
2023-05-10T09:28:18.665Z,12.27
2023-05-10T09:30:56.586Z,12.33
2023-05-10T09:33:25.081Z,12.08
2023-05-10T09:35:55.368Z,12.23
2023-05-10T09:38:23.788Z,12.09
2023-05-10T09:40:56.819Z,12.28
2023-05-10T09:43:24.701Z,12.47
2023-05-10T09:45:52.704Z,12.42
2023-05-10T09:48:20.678Z,12.25
2023-05-10T09:51:00.276Z,12.36
2023-05-10T09:53:28.290Z,12.50
2023-05-10T09:55:56.438Z,12.53
2023-05-10T09:58:24.433Z,12.48
2023-05-10T10:00:53.353Z,12.38
2023-05-10T10:03:23.625Z,12.23
2023-05-10T10:05:52.309Z,12.47
2023-05-10T10:08:21.844Z,12.48
2023-05-10T10:10:52.539Z,12.58
2023-05-10T10:13:21.164Z,12.76
2023-05-10T10:15:52.160Z,12.95
2023-05-10T10:18:24.531Z,12.86
2023-05-10T10:20:52.589Z,12.84
2023-05-10T10:23:21.839Z,12.77
2023-05-10T10:25:50.965Z,12.61
2023-05-10T10:28:28.284Z,12.64
2023-05-10T10:30:58.371Z,12.70
2023-05-10T10:33:38.480Z,12.76
2023-05-10T10:36:07.484Z,13.05
2023-05-10T10:38:58.968Z,13.22
2023-05-10T10:41:35.174Z,13.06
2023-05-10T10:44:26.032Z,13.16
2023-05-10T10:47:01.609Z,13.22
2023-05-10T10:49:29.620Z,13.25
2023-05-10T10:52:17.236Z,13.18
2023-05-10T10:54:53.019Z,13.15
2023-05-10T10:57:22.615Z,13.09
2023-05-10T10:59:51.057Z,12.81
2023-05-10T11:02:46.977Z,13.11
2023-05-10T11:05:37.164Z,13.37
2023-05-10T11:08:14.305Z,13.46
2023-05-10T11:10:53.976Z,13.57
2023-05-10T11:13:31.316Z,13.70
2023-05-10T11:15:59.975Z,13.91
2023-05-10T11:18:29.587Z,13.79
2023-05-10T11:21:03.803Z,13.58
2023-05-10T11:23:33.341Z,13.00
2023-05-10T11:26:03.062Z,13.08
2023-05-10T11:28:30.992Z,13.32
2023-05-10T11:30:59.137Z,13.21
2023-05-10T11:33:27.068Z,13.38
2023-05-10T11:35:54.953Z,13.53
2023-05-10T11:38:22.888Z,13.72
2023-05-10T11:40:54.411Z,13.86
2023-05-10T11:43:29.150Z,13.90
2023-05-10T11:45:57.204Z,13.94
2023-05-10T11:48:25.182Z,13.49
2023-05-10T11:50:53.835Z,13.86
2023-05-10T11:53:23.778Z,13.72
2023-05-10T11:55:53.336Z,13.54
2023-05-10T11:58:24.397Z,13.85
2023-05-10T12:00:52.649Z,14.25
2023-05-10T12:03:20.895Z,14.29
2023-05-10T12:05:48.956Z,14.20
2023-05-10T12:08:18.078Z,13.99
2023-05-10T12:10:45.984Z,14.23
2023-05-10T12:13:15.489Z,14.38
2023-05-10T12:15:45.578Z,13.95
2023-05-10T12:18:14.610Z,14.14
2023-05-10T12:20:43.147Z,13.84
2023-05-10T12:23:15.185Z,14.20
2023-05-10T12:25:43.062Z,14.10
2023-05-10T12:28:11.692Z,13.92
2023-05-10T12:30:40.412Z,14.07
2023-05-10T12:33:15.981Z,14.24
2023-05-10T12:35:48.791Z,14.38
2023-05-10T12:38:31.771Z,14.00
2023-05-10T12:41:01.412Z,14.09
2023-05-10T12:43:29.531Z,14.08
2023-05-10T12:45:57.971Z,14.35
2023-05-10T12:48:27.325Z,14.57
2023-05-10T12:50:55.257Z,14.57
2023-05-10T12:53:23.120Z,14.51
2023-05-10T12:55:51.035Z,14.56
2023-05-10T12:58:31.917Z,15.02
2023-05-10T13:01:03.646Z,15.36
2023-05-10T13:03:33.205Z,15.67
2023-05-10T13:06:01.266Z,15.98
2023-05-10T13:08:30.754Z,16.09
2023-05-10T13:10:58.709Z,16.32
2023-05-10T13:13:27.212Z,15.92
2023-05-10T13:15:55.216Z,15.30
2023-05-10T13:18:23.155Z,14.82
2023-05-10T13:20:52.544Z,14.46
2023-05-10T13:23:20.426Z,14.45
2023-05-10T13:25:48.347Z,14.54
2023-05-10T13:28:16.316Z,14.55
2023-05-10T13:30:44.444Z,14.73
2023-05-10T13:33:12.417Z,14.87
2023-05-10T13:35:40.475Z,14.80
2023-05-10T13:38:10.443Z,14.59
2023-05-10T13:40:38.365Z,14.49
2023-05-10T13:43:06.347Z,14.41
2023-05-10T13:45:34.290Z,14.40
2023-05-10T13:48:02.153Z,14.56
2023-05-10T13:50:30.103Z,14.34
2023-05-10T13:52:58.012Z,14.23
2023-05-10T13:56:21.016Z,14.15
2023-05-10T13:58:50.288Z,14.06
2023-05-10T14:01:18.305Z,14.01
2023-05-10T14:03:46.399Z,14.34
2023-05-10T14:06:14.386Z,14.58
2023-05-10T14:08:42.300Z,14.48
2023-05-10T14:11:10.430Z,14.57
2023-05-10T14:13:38.323Z,14.43
2023-05-10T14:16:08.533Z,14.42
2023-05-10T14:18:36.591Z,14.42
2023-05-10T14:21:05.006Z,14.42
2023-05-10T14:23:33.022Z,14.35
2023-05-10T14:26:00.997Z,14.51
2023-05-10T14:28:29.003Z,14.78
2023-05-10T14:30:57.129Z,14.64
2023-05-10T14:33:26.648Z,14.65
2023-05-10T14:35:57.596Z,14.52
2023-05-10T14:38:25.757Z,14.52
2023-05-10T14:40:53.624Z,14.35
2023-05-10T14:43:21.518Z,14.35
2023-05-10T14:45:49.452Z,14.31
2023-05-10T14:48:18.541Z,14.12
2023-05-10T14:50:48.167Z,13.97
2023-05-10T14:53:36.268Z,14.11
2023-05-10T14:56:04.177Z,13.81
2023-05-10T14:58:34.110Z,13.77
2023-05-10T15:01:02.467Z,13.89
2023-05-10T15:03:30.856Z,14.05
2023-05-10T15:06:00.645Z,14.01
2023-05-10T15:08:28.850Z,14.11
2023-05-10T15:10:57.336Z,13.91
2023-05-10T15:13:25.247Z,14.17
2023-05-10T15:15:53.376Z,14.22
2023-05-10T15:18:21.392Z,14.44
2023-05-10T15:20:49.337Z,14.27
2023-05-10T15:23:18.715Z,14.35
2023-05-10T15:25:46.694Z,14.21
2023-05-10T15:28:14.666Z,14.06
2023-05-10T15:30:42.602Z,14.15
2023-05-10T15:33:10.554Z,14.38
2023-05-10T15:35:40.561Z,14.56
2023-05-10T15:38:08.400Z,14.70
2023-05-10T15:40:37.679Z,14.57
2023-05-10T15:43:06.267Z,14.55
2023-05-10T15:45:35.219Z,14.27
2023-05-10T15:48:05.828Z,14.35
2023-05-10T15:50:33.830Z,14.65
2023-05-10T15:53:01.793Z,14.71
2023-05-10T15:55:29.849Z,14.50
2023-05-10T15:57:59.175Z,14.59
2023-05-10T16:00:27.174Z,14.59
2023-05-10T16:02:55.280Z,14.57
2023-05-10T16:05:23.443Z,14.57
2023-05-10T16:07:51.588Z,14.63
2023-05-10T16:10:19.701Z,14.56
2023-05-10T16:12:47.580Z,14.57
2023-05-10T16:15:17.123Z,14.52
2023-05-10T16:17:45.303Z,14.31
2023-05-10T16:20:13.398Z,14.35
2023-05-10T16:22:41.350Z,14.40
2023-05-10T16:25:11.013Z,14.29
2023-05-10T16:27:40.683Z,14.44
2023-05-10T16:30:10.079Z,14.39
2023-05-10T16:32:39.433Z,14.37
2023-05-10T16:35:08.589Z,14.45
2023-05-10T16:37:36.453Z,14.46
2023-05-10T16:40:04.853Z,14.49
2023-05-10T16:42:32.720Z,14.27
2023-05-10T16:45:07.284Z,14.42
2023-05-10T16:47:35.353Z,14.40
2023-05-10T16:50:05.886Z,14.17
2023-05-10T16:52:34.771Z,14.13
2023-05-10T16:55:03.351Z,14.27
2023-05-10T16:57:32.927Z,14.11
2023-05-10T17:00:00.996Z,14.26
2023-05-10T17:02:29.076Z,14.18
2023-05-10T17:04:57.108Z,14.20
2023-05-10T17:07:28.668Z,14.27
2023-05-10T17:09:56.749Z,14.25
2023-05-10T17:12:24.703Z,14.20
2023-05-10T17:14:52.799Z,14.29
2023-05-10T17:17:20.785Z,13.55
2023-05-10T17:19:48.865Z,14.11
2023-05-10T17:22:16.983Z,14.25
2023-05-10T17:24:46.986Z,14.16
2023-05-10T17:27:15.168Z,14.06
2023-05-10T17:29:43.055Z,14.02
2023-05-10T17:32:11.112Z,14.08
2023-05-10T17:34:40.096Z,14.10
2023-05-10T17:37:10.307Z,13.78
2023-05-10T17:39:40.115Z,13.79
2023-05-10T17:42:09.418Z,13.78
2023-05-10T17:44:37.248Z,13.69
2023-05-10T17:47:06.303Z,13.59
2023-05-10T17:49:34.243Z,13.57
2023-05-10T17:52:02.484Z,13.45
2023-05-10T17:54:30.429Z,13.46
2023-05-10T17:56:59.297Z,13.51
2023-05-10T17:59:28.683Z,13.37
2023-05-10T18:01:56.536Z,13.40
2023-05-10T18:04:24.531Z,13.37
2023-05-10T18:06:55.223Z,13.46
2023-05-10T18:09:23.155Z,13.68
2023-05-10T18:11:51.059Z,13.70
2023-05-10T18:14:31.960Z,13.71
2023-05-10T18:17:06.155Z,13.72
2023-05-10T18:19:34.152Z,13.56
2023-05-10T18:22:02.080Z,13.60
2023-05-10T18:24:38.949Z,13.35
2023-05-10T18:27:08.272Z,13.12
2023-05-10T18:29:36.343Z,13.17
2023-05-10T18:32:06.147Z,13.24
2023-05-10T18:34:34.498Z,13.15
2023-05-10T18:37:07.745Z,13.26
2023-05-10T18:39:36.022Z,13.32
2023-05-10T18:42:05.084Z,13.31
2023-05-10T18:44:33.064Z,13.18
2023-05-10T18:47:00.996Z,13.24
2023-05-10T18:49:30.292Z,13.15
2023-05-10T18:51:58.173Z,13.23
2023-05-10T18:54:26.784Z,13.22
2023-05-10T18:56:54.706Z,13.19
2023-05-10T18:59:22.926Z,13.35
2023-05-10T19:01:51.370Z,13.24
2023-05-10T19:04:19.489Z,13.25
2023-05-10T19:06:48.880Z,13.16
2023-05-10T19:09:16.791Z,12.87
2023-05-10T19:11:44.704Z,13.04
2023-05-10T19:14:12.639Z,12.92
2023-05-10T19:16:42.737Z,12.90
2023-05-10T19:19:10.868Z,12.65
2023-05-10T19:21:40.971Z,12.87
2023-05-10T19:24:12.472Z,12.63
2023-05-10T19:26:40.494Z,12.61
2023-05-10T19:29:08.434Z,12.54
2023-05-10T19:31:36.434Z,12.55
2023-05-10T19:34:04.638Z,12.53
2023-05-10T19:36:33.018Z,12.47
2023-05-10T19:39:00.956Z,12.34
2023-05-10T19:41:30.220Z,12.51
2023-05-10T19:43:58.135Z,12.51
2023-05-10T19:46:26.070Z,12.38
2023-05-10T19:48:54.094Z,12.51
2023-05-10T19:51:22.279Z,12.44
2023-05-10T19:53:50.304Z,12.29
2023-05-10T19:56:18.485Z,12.25
2023-05-10T19:58:47.769Z,12.23
2023-05-10T20:01:15.935Z,12.01
2023-05-10T20:03:43.980Z,12.07
2023-05-10T20:06:12.270Z,12.08
2023-05-10T20:08:40.155Z,11.91
2023-05-10T20:11:08.128Z,11.76
2023-05-10T20:13:36.143Z,11.85
2023-05-10T20:16:06.877Z,11.78
2023-05-10T20:18:34.937Z,11.65
2023-05-10T20:21:02.839Z,11.70
2023-05-10T20:23:30.740Z,11.73
2023-05-10T20:25:59.405Z,11.69
2023-05-10T20:28:28.312Z,11.68
2023-05-10T20:30:57.074Z,11.66
2023-05-10T20:33:26.463Z,11.45
2023-05-10T20:35:54.431Z,11.42
2023-05-10T20:38:22.711Z,11.42
2023-05-10T20:40:50.619Z,11.31
2023-05-10T20:43:18.915Z,11.26
2023-05-10T20:45:46.940Z,11.18
2023-05-10T20:48:14.881Z,11.23
2023-05-10T20:50:44.293Z,11.23
2023-05-10T20:53:12.165Z,11.16
2023-05-10T20:55:40.154Z,11.08
2023-05-10T20:58:08.079Z,11.06
2023-05-10T21:00:35.975Z,10.85
2023-05-10T21:03:04.033Z,10.98
2023-05-10T21:05:32.139Z,10.96
2023-05-10T21:08:01.373Z,10.92
2023-05-10T21:10:29.414Z,10.90
2023-05-10T21:12:57.517Z,10.77
2023-05-10T21:15:25.972Z,10.68
2023-05-10T21:17:54.303Z,10.61
2023-05-10T21:20:23.436Z,10.57
2023-05-10T21:22:51.428Z,10.40
2023-05-10T21:25:20.901Z,10.36
2023-05-10T21:27:48.872Z,10.30
2023-05-10T21:30:17.052Z,10.44
2023-05-10T21:32:45.160Z,10.34
2023-05-10T21:35:13.061Z,10.33
2023-05-10T21:37:40.941Z,10.34
2023-05-10T21:40:09.690Z,10.35
2023-05-10T21:42:39.046Z,10.23
2023-05-10T21:45:07.842Z,10.31
2023-05-10T21:47:36.389Z,10.30
2023-05-10T21:50:04.375Z,10.24
2023-05-10T21:52:32.273Z,10.00
2023-05-10T21:55:00.203Z,10.10
2023-05-10T21:57:28.039Z,10.02
2023-05-10T21:59:57.319Z,10.10
2023-05-10T22:02:25.508Z,9.96
2023-05-10T22:04:53.517Z,9.98
2023-05-10T22:07:21.382Z,9.92
2023-05-10T22:09:49.285Z,9.76
2023-05-10T22:12:17.186Z,9.76
2023-05-10T22:14:45.129Z,9.75
2023-05-10T22:17:14.484Z,9.87
2023-05-10T22:19:42.467Z,9.88
2023-05-10T22:22:10.909Z,9.96
2023-05-10T22:24:38.754Z,9.77
2023-05-10T22:27:07.080Z,9.55
2023-05-10T22:29:35.014Z,9.54
2023-05-10T22:32:05.690Z,9.53
2023-05-10T22:34:35.548Z,9.66
2023-05-10T22:37:03.902Z,9.54
2023-05-10T22:39:31.791Z,9.58
2023-05-10T22:41:59.741Z,9.55
2023-05-10T22:44:27.855Z,9.64
2023-05-10T22:46:55.854Z,9.50
2023-05-10T22:49:23.797Z,9.41
2023-05-10T22:51:53.031Z,9.23
2023-05-10T22:54:20.947Z,9.41
2023-05-10T22:56:48.894Z,9.49
2023-05-10T22:59:16.851Z,9.42
2023-05-10T23:01:44.735Z,9.37
2023-05-10T23:04:12.699Z,9.19
2023-05-10T23:06:40.794Z,9.13
2023-05-10T23:09:10.138Z,8.94
2023-05-10T23:11:38.037Z,9.05
2023-05-10T23:14:06.021Z,9.07
2023-05-10T23:16:34.150Z,8.97
2023-05-10T23:19:02.186Z,9.05
2023-05-10T23:21:32.214Z,9.08
2023-05-10T23:24:00.361Z,8.81
2023-05-10T23:26:29.647Z,8.84
2023-05-10T23:28:57.524Z,8.75
2023-05-10T23:31:25.621Z,8.79
2023-05-10T23:33:53.507Z,8.89
2023-05-10T23:36:21.435Z,8.92
2023-05-10T23:38:49.328Z,8.81
2023-05-10T23:41:17.237Z,9.09
2023-05-10T23:43:46.523Z,8.90
2023-05-10T23:46:14.543Z,8.80
2023-05-10T23:48:42.521Z,8.84
2023-05-10T23:51:10.509Z,8.90
2023-05-10T23:53:38.739Z,8.94
2023-05-10T23:56:07.501Z,8.77
2023-05-10T23:58:35.414Z,8.74
